Time;durP1;ratioP1;P1;durP2;ratioP2;P2;SDS_P1;SDS_P2;PMS_P1;PMS_P2;Temp;Humidity;BMP_temperature;BMP_pressure;BME280_temperature;BME280_humidity;BME280_pressure;Samples;Min_cycle;Max_cycle;Signal;HPM_P1;HPM_P2
2023/05/07 00:04:43;;;;;;;13.77;9.17;;;;;;;8.23;100.00;96833.56;10375028;28;20248;-67
2023/05/07 00:09:44;;;;;;;13.87;9.33;;;;;;;8.35;100.00;96837.66;10374859;28;20185;-67
2023/05/07 00:14:45;;;;;;;12.77;9.67;;;;;;;8.21;100.00;96838.09;10374344;28;20240;-67
2023/05/07 00:19:46;;;;;;;14.53;10.30;;;;;;;8.20;100.00;96834.63;10374404;28;20343;-67
2023/05/07 00:24:46;;;;;;;14.13;10.10;;;;;;;8.25;100.00;96838.63;10374096;28;20600;-66
2023/05/07 00:29:47;;;;;;;15.17;12.03;;;;;;;8.03;100.00;96840.56;10374180;28;20193;-66
2023/05/07 00:34:47;;;;;;;20.97;14.67;;;;;;;7.90;100.00;96851.28;10373676;28;20205;-67
2023/05/07 00:39:47;;;;;;;22.80;15.53;;;;;;;7.65;100.00;96861.25;10373735;28;20193;-66
2023/05/07 00:44:48;;;;;;;21.03;12.00;;;;;;;7.46;100.00;96845.59;10373539;28;20340;-66
2023/05/07 00:49:48;;;;;;;21.47;15.20;;;;;;;7.53;100.00;96851.88;10371958;28;20189;-66
2023/05/07 00:54:49;;;;;;;24.07;15.57;;;;;;;7.53;100.00;96851.06;10373143;28;20214;-66
2023/05/07 00:59:51;;;;;;;25.40;14.20;;;;;;;7.44;100.00;96860.50;10372204;28;20296;-66
2023/05/07 01:04:51;;;;;;;26.47;15.57;;;;;;;7.54;100.00;96876.19;10372722;28;20264;-66
2023/05/07 01:09:52;;;;;;;23.37;14.23;;;;;;;7.53;100.00;96867.53;10372555;28;20656;-66
2023/05/07 01:14:52;;;;;;;23.77;13.23;;;;;;;7.52;100.00;96868.50;10371862;28;20718;-66
2023/05/07 01:19:54;;;;;;;19.23;13.67;;;;;;;7.56;100.00;96862.06;10369441;28;20217;-66
2023/05/07 01:24:56;;;;;;;23.17;14.47;;;;;;;7.49;100.00;96858.34;10368955;28;20296;-67
2023/05/07 01:29:56;;;;;;;20.30;13.27;;;;;;;7.36;100.00;96852.53;10352950;28;20200;-66
2023/05/07 01:34:58;;;;;;;17.90;13.40;;;;;;;7.36;100.00;96853.34;10368657;28;20213;-66
2023/05/07 01:39:59;;;;;;;19.13;13.10;;;;;;;7.35;100.00;96869.13;10368881;28;20275;-66
2023/05/07 01:44:59;;;;;;;22.57;15.03;;;;;;;7.38;100.00;96872.31;10369644;28;20271;-66
2023/05/07 01:50:00;;;;;;;22.00;14.13;;;;;;;7.41;100.00;96877.25;10369807;28;20181;-67
2023/05/07 01:55:00;;;;;;;25.27;15.50;;;;;;;7.31;100.00;96874.59;10368215;28;20209;-66
2023/05/07 02:00:02;;;;;;;22.47;15.33;;;;;;;7.24;100.00;96875.25;10369353;28;20205;-66
2023/05/07 02:05:03;;;;;;;25.73;16.10;;;;;;;7.15;100.00;96887.28;10368098;28;20205;-66
2023/05/07 02:10:04;;;;;;;28.47;17.23;;;;;;;7.15;100.00;96902.91;10367716;28;20189;-66
2023/05/07 02:15:05;;;;;;;32.60;18.53;;;;;;;7.13;100.00;96900.44;10333640;28;988779;-66
2023/05/07 02:20:12;;;;;;;25.53;16.10;;;;;;;7.14;100.00;96890.88;10369613;28;20275;-66
2023/05/07 02:25:13;;;;;;;26.73;17.43;;;;;;;7.11;100.00;96885.91;10382502;28;20209;-66
2023/05/07 02:30:13;;;;;;;26.90;17.60;;;;;;;7.05;100.00;96892.47;10382739;28;20196;-67
2023/05/07 02:35:14;;;;;;;26.67;17.13;;;;;;;7.00;100.00;96894.66;10383576;28;20212;-66
2023/05/07 02:40:14;;;;;;;23.33;15.57;;;;;;;6.93;100.00;96893.50;10381993;28;20682;-66
2023/05/07 02:45:15;;;;;;;31.03;18.73;;;;;;;7.02;100.00;96902.34;10383064;28;20217;-66
2023/05/07 02:50:17;;;;;;;30.03;19.03;;;;;;;6.95;100.00;96896.78;10350217;28;20289;-67
2023/05/07 02:55:17;;;;;;;27.57;18.37;;;;;;;6.95;100.00;96892.44;10341183;28;20699;-66
2023/05/07 03:00:19;;;;;;;25.83;16.37;;;;;;;6.99;100.00;96900.00;10342716;28;20186;-66
2023/05/07 03:05:27;;;;;;;22.73;14.53;;;;;;;6.96;100.00;96888.84;10369509;28;20220;-66
2023/05/07 03:10:27;;;;;;;28.53;16.23;;;;;;;7.00;100.00;96879.03;10383254;28;20189;-66
2023/05/07 03:15:28;;;;;;;26.53;16.73;;;;;;;6.93;100.00;96877.88;10381400;28;20225;-66
2023/05/07 03:20:28;;;;;;;28.20;18.77;;;;;;;6.95;100.00;96884.63;10383055;28;20189;-66
2023/05/07 03:25:32;;;;;;;24.97;16.47;;;;;;;6.93;100.00;96878.69;10381404;28;20829;-66
2023/05/07 03:30:32;;;;;;;23.63;16.60;;;;;;;6.94;100.00;96889.97;10381588;28;20198;-67
2023/05/07 03:35:33;;;;;;;30.33;16.33;;;;;;;6.94;100.00;96895.16;10376282;28;20225;-66
2023/05/07 03:40:34;;;;;;;28.00;16.53;;;;;;;6.99;100.00;96903.41;10374702;28;20251;-66
2023/05/07 03:45:35;;;;;;;22.43;15.00;;;;;;;6.98;100.00;96886.13;10374724;28;20217;-66
2023/05/07 03:50:43;;;;;;;23.53;15.50;;;;;;;6.94;100.00;96897.78;10375100;28;20193;-66
2023/05/07 03:55:44;;;;;;;28.73;16.43;;;;;;;7.01;100.00;96879.84;10374048;28;20225;-66
2023/05/07 04:00:44;;;;;;;28.33;19.43;;;;;;;6.99;100.00;96892.16;10375354;28;20213;-66
2023/05/07 04:05:54;;;;;;;30.73;20.33;;;;;;;7.02;100.00;96891.91;10373801;28;20296;-66
2023/05/07 04:10:56;;;;;;;26.63;17.80;;;;;;;6.99;100.00;96895.59;10374877;28;20264;-66
2023/05/07 04:15:58;;;;;;;27.90;18.87;;;;;;;7.02;100.00;96905.75;10374590;28;20229;-66
2023/05/07 04:21:00;;;;;;;30.10;20.27;;;;;;;6.95;100.00;96915.03;10373835;28;20181;-66
2023/05/07 04:26:00;;;;;;;27.60;18.13;;;;;;;6.96;100.00;96922.72;10374351;28;20743;-66
2023/05/07 04:31:09;;;;;;;31.53;18.67;;;;;;;7.00;100.00;96925.91;10373220;28;20221;-66
2023/05/07 04:36:11;;;;;;;24.73;15.63;;;;;;;7.02;100.00;96937.00;10372527;28;20229;-66
2023/05/07 04:41:19;;;;;;;21.93;14.60;;;;;;;7.14;100.00;96933.38;10372421;28;20193;-66
2023/05/07 04:46:19;;;;;;;18.77;13.37;;;;;;;7.15;100.00;96934.19;10372063;28;20213;-66
2023/05/07 04:51:20;;;;;;;21.40;13.63;;;;;;;7.39;100.00;96936.50;10372052;28;20213;-66
2023/05/07 04:56:21;;;;;;;18.33;13.53;;;;;;;7.25;100.00;96934.25;10372000;28;20223;-66
2023/05/07 05:01:22;;;;;;;20.23;13.77;;;;;;;7.14;100.00;96930.75;10371680;28;20335;-66
2023/05/07 05:06:22;;;;;;;19.53;13.77;;;;;;;7.02;100.00;96937.00;10372193;28;20822;-66
2023/05/07 05:11:25;;;;;;;20.10;14.80;;;;;;;7.14;100.00;96949.00;10371979;28;20197;-66
2023/05/07 05:16:26;;;;;;;19.57;13.23;;;;;;;7.00;100.00;96954.56;10431002;23;20251;-66
2023/05/07 05:21:26;;;;;;;18.93;13.23;;;;;;;7.05;100.00;96954.16;10435149;28;20766;-66
2023/05/07 05:26:32;;;;;;;19.00;13.80;;;;;;;7.17;100.00;96949.69;10452684;28;20226;-65
2023/05/07 05:31:33;;;;;;;18.33;13.27;;;;;;;7.17;100.00;96962.72;10436075;28;20194;-66
2023/05/07 05:36:33;;;;;;;21.57;14.60;;;;;;;7.26;100.00;96965.38;10435878;28;20223;-66
2023/05/07 05:41:35;;;;;;;18.10;13.10;;;;;;;7.16;100.00;96972.31;10435449;28;20654;-65
2023/05/07 05:46:37;;;;;;;16.87;12.23;;;;;;;7.23;100.00;96964.81;10435852;28;20204;-65
2023/05/07 05:51:37;;;;;;;18.83;11.53;;;;;;;7.38;100.00;96976.56;10453212;28;20276;-66
2023/05/07 05:56:38;;;;;;;17.93;11.10;;;;;;;7.55;100.00;96975.13;10434621;28;20220;-65
2023/05/07 06:01:39;;;;;;;14.20;10.27;;;;;;;8.13;100.00;96955.38;10435051;28;20199;-65
2023/05/07 06:06:39;;;;;;;11.83;9.57;;;;;;;8.47;100.00;96955.00;10417650;28;20720;-65
2023/05/07 06:11:40;;;;;;;12.27;9.43;;;;;;;8.26;100.00;96953.34;10397016;28;20289;-66
2023/05/07 06:16:41;;;;;;;11.57;9.10;;;;;;;8.26;100.00;96957.75;10406214;28;20228;-65
2023/05/07 06:21:42;;;;;;;11.27;8.40;;;;;;;8.54;100.00;96966.56;10394174;28;20193;-65
2023/05/07 06:26:43;;;;;;;13.50;7.37;;;;;;;8.79;100.00;96965.19;10429644;28;20211;-65
2023/05/07 06:31:43;;;;;;;12.57;9.40;;;;;;;8.18;100.00;96961.84;10413238;28;20267;-65
2023/05/07 06:36:45;;;;;;;10.33;8.40;;;;;;;8.42;100.00;96960.63;10410057;28;20308;-65
2023/05/07 06:41:54;;;;;;;10.63;7.57;;;;;;;8.59;100.00;96960.94;10396039;28;20196;-65
2023/05/07 06:47:00;;;;;;;11.80;8.87;;;;;;;8.48;100.00;96974.94;10392991;28;20568;-66
2023/05/07 06:52:01;;;;;;;10.53;8.60;;;;;;;8.19;100.00;96981.78;10393076;28;20938;-66
2023/05/07 06:57:01;;;;;;;13.13;8.83;;;;;;;7.93;100.00;96984.03;10392694;28;20220;-65
2023/05/07 07:02:02;;;;;;;11.57;8.90;;;;;;;7.67;100.00;96989.72;10393093;28;20199;-65
2023/05/07 07:07:03;;;;;;;12.07;8.10;;;;;;;7.42;100.00;96996.19;10440556;28;20203;-66
2023/05/07 07:12:03;;;;;;;11.07;8.33;;;;;;;7.38;100.00;96993.97;10483147;28;20217;-66
2023/05/07 07:17:05;;;;;;;11.20;7.93;;;;;;;7.33;100.00;96994.34;10482519;28;20250;-66
2023/05/07 07:22:06;;;;;;;10.67;7.90;;;;;;;7.50;100.00;97001.59;10457216;28;20199;-65
2023/05/07 07:27:07;;;;;;;12.60;8.00;;;;;;;7.30;100.00;97007.63;10424465;28;20205;-66
2023/05/07 07:32:08;;;;;;;11.00;8.13;;;;;;;7.52;100.00;96998.84;10411012;28;20291;-66
2023/05/07 07:37:09;;;;;;;8.17;6.40;;;;;;;7.67;100.00;97000.16;10421854;28;20319;-66
2023/05/07 07:42:11;;;;;;;7.97;6.30;;;;;;;8.20;100.00;96983.41;10439994;28;20561;-66
2023/05/07 07:47:12;;;;;;;7.80;5.70;;;;;;;8.63;100.00;97002.28;10439656;28;20701;-66
2023/05/07 07:52:13;;;;;;;6.27;5.57;;;;;;;8.78;100.00;96987.03;10440024;28;20195;-66
2023/05/07 07:57:15;;;;;;;9.77;8.30;;;;;;;8.18;100.00;96997.56;10472775;28;20228;-66
2023/05/07 08:02:16;;;;;;;7.80;5.97;;;;;;;8.03;100.00;97005.75;10439461;28;20578;-66
2023/05/07 08:07:18;;;;;;;6.70;5.60;;;;;;;8.54;100.00;97009.16;10456976;28;20215;-66
2023/05/07 08:12:20;;;;;;;8.20;5.63;;;;;;;8.20;100.00;97011.28;10472308;28;20214;-65
2023/05/07 08:17:22;;;;;;;7.13;6.10;;;;;;;8.21;100.00;97016.38;10438706;28;20231;-66
2023/05/07 08:22:23;;;;;;;7.53;6.47;;;;;;;8.55;100.00;97010.00;10471002;28;20187;-65
2023/05/07 08:27:24;;;;;;;6.00;5.10;;;;;;;8.42;100.00;97010.22;10438459;28;20613;-66
2023/05/07 08:32:24;;;;;;;8.07;6.40;;;;;;;8.23;100.00;97008.41;10437330;28;20266;-65
2023/05/07 08:37:25;;;;;;;10.40;7.10;;;;;;;8.16;100.00;97018.56;10427214;28;20227;-65
2023/05/07 08:42:28;;;;;;;9.87;7.07;;;;;;;8.23;100.00;97024.06;10443230;28;20203;-65
2023/05/07 08:47:35;;;;;;;8.37;6.53;;;;;;;8.26;100.00;97029.03;10395717;28;20224;-66
2023/05/07 08:52:36;;;;;;;8.27;6.20;;;;;;;8.54;100.00;97032.66;10399122;28;20188;-66
2023/05/07 08:57:37;;;;;;;7.13;6.27;;;;;;;9.05;100.00;97024.69;10399892;28;20223;-66
2023/05/07 09:02:38;;;;;;;7.83;5.93;;;;;;;8.87;100.00;97028.00;10413562;28;20220;-66
2023/05/07 09:07:40;;;;;;;6.50;5.77;;;;;;;8.48;100.00;97048.06;10413353;28;20223;-66
2023/05/07 09:12:41;;;;;;;7.70;6.20;;;;;;;8.42;100.00;97051.16;10415216;28;20180;-66
2023/05/07 09:17:44;;;;;;;8.90;6.30;;;;;;;8.52;100.00;97054.66;10414358;28;20227;-66
2023/05/07 09:22:45;;;;;;;8.10;5.90;;;;;;;8.63;100.00;97062.38;10411431;28;20196;-66
2023/05/07 09:27:48;;;;;;;6.67;5.70;;;;;;;8.98;100.00;97054.97;10413994;28;20590;-66
2023/05/07 09:32:49;;;;;;;5.87;5.30;;;;;;;8.73;100.00;97046.72;10413542;28;20200;-66
2023/05/07 09:37:55;;;;;;;8.47;6.30;;;;;;;9.07;100.00;97039.28;10411482;28;20642;-66
2023/05/07 09:42:55;;;;;;;6.03;5.40;;;;;;;8.80;100.00;97024.28;10449529;28;20651;-66
2023/05/07 09:47:58;;;;;;;5.20;4.70;;;;;;;8.86;100.00;97042.03;10412140;28;20204;-66
2023/05/07 09:53:00;;;;;;;5.30;4.80;;;;;;;9.24;100.00;97029.09;10412414;28;20275;-66
2023/05/07 09:58:02;;;;;;;6.07;5.47;;;;;;;9.24;100.00;97034.31;10415039;28;20215;-66
2023/05/07 10:03:04;;;;;;;5.27;4.77;;;;;;;9.18;100.00;97043.53;10406510;28;20188;-66
2023/05/07 10:08:16;;;;;;;6.70;5.57;;;;;;;8.87;100.00;97040.25;10419509;28;20211;-66
2023/05/07 10:13:18;;;;;;;11.00;6.53;;;;;;;8.91;100.00;97058.13;10418852;28;20195;-66
2023/05/07 10:18:29;;;;;;;7.97;6.40;;;;;;;8.90;100.00;97069.53;10451162;28;20235;-66
2023/05/07 10:23:33;;;;;;;8.17;6.70;;;;;;;9.00;100.00;97058.25;10434173;28;20211;-66
2023/05/07 10:28:38;;;;;;;8.23;7.23;;;;;;;9.42;100.00;97048.31;10450782;28;20208;-66
2023/05/07 10:33:41;;;;;;;10.10;7.30;;;;;;;9.38;100.00;97040.91;10434790;28;20216;-66
2023/05/07 10:38:42;;;;;;;8.57;7.53;;;;;;;9.41;100.00;97036.19;10434396;28;20631;-66
2023/05/07 10:43:45;;;;;;;6.77;5.90;;;;;;;9.86;100.00;97039.91;10437800;28;20199;-66
2023/05/07 10:49:06;;;;;;;6.80;5.13;;;;;;;10.04;100.00;97036.53;10442825;28;20200;-66
2023/05/07 10:54:15;;;;;;;7.43;6.40;;;;;;;9.54;98.88;97014.13;10435739;28;20212;-66
2023/05/07 10:59:34;;;;;;;7.40;5.53;;;;;;;9.66;100.00;97041.78;10441881;28;20212;-67
2023/05/07 11:04:42;;;;;;;7.17;5.77;;;;;;;9.51;100.00;97046.66;10460031;28;20206;-66
2023/05/07 11:09:51;;;;;;;6.30;5.70;;;;;;;9.35;100.00;97054.25;10441867;28;20265;-67
2023/05/07 11:14:53;;;;;;;7.27;5.77;;;;;;;9.39;100.00;97064.28;10484919;23;20244;-66
2023/05/07 11:20:00;;;;;;;8.50;6.73;;;;;;;9.67;100.00;97038.19;10413423;28;20224;-66
2023/05/07 11:25:19;;;;;;;6.77;5.77;;;;;;;9.62;100.00;97032.59;10414405;28;20266;-66
2023/05/07 11:30:23;;;;;;;7.30;6.60;;;;;;;9.88;100.00;97032.75;10416255;28;20212;-67
2023/05/07 11:35:24;;;;;;;6.73;5.53;;;;;;;10.99;99.20;97018.72;10415796;28;20219;-67
2023/05/07 11:40:25;;;;;;;7.57;6.03;;;;;;;11.70;93.00;97007.22;10415825;28;20211;-67
2023/05/07 11:45:25;;;;;;;6.18;5.10;;;;;;;11.92;86.92;96974.38;10416967;28;20262;-67
2023/05/07 11:50:26;;;;;;;6.25;5.65;;;;;;;11.92;87.76;96994.53;10416601;28;20188;-67
2023/05/07 11:55:26;;;;;;;5.90;5.30;;;;;;;11.57;85.32;96980.56;10415520;28;20558;-67
2023/05/07 12:00:26;;;;;;;6.18;5.57;;;;;;;12.04;86.24;96995.91;10378785;28;20193;-67
2023/05/07 12:05:28;;;;;;;7.07;5.45;;;;;;;11.56;89.44;97023.53;10373673;28;20209;-67
2023/05/07 12:10:28;;;;;;;7.28;5.07;;;;;;;12.31;88.17;97010.63;10373461;28;20679;-67
2023/05/07 12:15:29;;;;;;;5.43;4.93;;;;;;;12.41;87.09;97012.28;10374483;28;20325;-67
2023/05/07 12:20:29;;;;;;;5.85;5.30;;;;;;;12.54;86.29;97025.78;10374834;28;20235;-66
2023/05/07 12:25:37;;;;;;;7.10;6.10;;;;;;;11.55;91.99;97059.44;10374318;28;20288;-66
2023/05/07 12:30:38;;;;;;;6.53;5.60;;;;;;;11.77;90.40;97039.72;10373822;28;20190;-66
2023/05/07 12:35:41;;;;;;;7.13;5.78;;;;;;;12.24;88.40;97028.00;10373871;28;20312;-65
2023/05/07 12:40:43;;;;;;;8.98;5.63;;;;;;;12.17;89.18;97028.78;10373600;28;20193;-66
2023/05/07 12:45:45;;;;;;;6.35;5.70;;;;;;;12.45;86.36;97016.22;10373897;28;20209;-66
2023/05/07 12:50:45;;;;;;;6.30;5.47;;;;;;;12.16;88.66;97045.50;10373226;28;20188;-66
2023/05/07 12:55:47;;;;;;;6.32;5.72;;;;;;;12.40;85.33;97016.69;10373394;28;20228;-66
2023/05/07 13:00:49;;;;;;;7.18;6.03;;;;;;;12.61;87.24;97032.03;10373059;28;20255;-66
2023/05/07 13:05:50;;;;;;;6.78;5.88;;;;;;;13.08;86.22;97019.25;10372549;28;20252;-66
2023/05/07 13:10:50;;;;;;;6.07;5.20;;;;;;;13.10;83.80;96999.69;10372866;28;20284;-66
2023/05/07 13:15:51;;;;;;;11.45;5.88;;;;;;;12.75;82.99;96990.31;10371911;28;20286;-65
2023/05/07 13:20:51;;;;;;;9.05;6.35;;;;;;;12.67;81.91;96983.25;10372436;28;20181;-66
2023/05/07 13:25:55;;;;;;;12.98;7.32;;;;;;;12.35;82.39;96987.47;10371843;28;20252;-66
2023/05/07 13:30:55;;;;;;;6.13;5.53;;;;;;;13.20;82.80;96986.38;10371935;28;20185;-66
2023/05/07 13:35:56;;;;;;;6.65;6.05;;;;;;;13.16;83.76;96999.03;10371756;28;20241;-66
2023/05/07 13:40:57;;;;;;;7.70;6.20;;;;;;;13.08;82.76;96991.16;10369905;28;20208;-66
2023/05/07 13:45:57;;;;;;;6.60;6.00;;;;;;;12.58;83.44;96998.19;10371659;28;20224;-65
2023/05/07 13:50:58;;;;;;;6.72;6.13;;;;;;;12.65;nan;96985.22;10369892;28;20181;-65
2023/05/07 13:55:58;;;;;;;6.65;5.95;;;;;;;12.32;85.09;97008.81;10371313;28;20247;-66
2023/05/07 14:00:58;;;;;;;8.90;6.75;;;;;;;12.35;86.04;97016.34;10372002;28;20224;-66
2023/05/07 14:06:01;;;;;;;7.30;6.60;;;;;;;12.66;85.35;97016.59;10370566;28;20205;-66
2023/05/07 14:11:01;;;;;;;8.00;6.90;;;;;;;12.19;88.05;97043.41;10370937;28;20196;-67
2023/05/07 14:16:03;;;;;;;9.23;6.88;;;;;;;12.38;86.49;97013.41;10368722;28;20243;-66
2023/05/07 14:21:06;;;;;;;7.15;6.32;;;;;;;12.35;87.62;97024.25;10367734;28;20208;-66
2023/05/07 14:26:06;;;;;;;8.05;6.80;;;;;;;12.39;86.77;97015.06;10366282;28;20228;-66
2023/05/07 14:31:06;;;;;;;6.38;5.78;;;;;;;12.77;84.31;96990.97;10368790;28;20187;-66
2023/05/07 14:36:07;;;;;;;6.95;5.80;;;;;;;13.00;84.43;97002.50;10372348;28;20274;-67
2023/05/07 14:41:07;;;;;;;5.93;5.32;;;;;;;13.10;81.81;96970.75;10410177;28;20196;-67
2023/05/07 14:46:07;;;;;;;5.85;5.25;;;;;;;12.71;84.36;96992.47;10405092;28;20210;-67
2023/05/07 14:51:08;;;;;;;9.15;6.13;;;;;;;12.65;84.09;96993.13;10368569;28;20271;-66
2023/05/07 14:56:08;;;;;;;7.43;5.25;;;;;;;12.84;83.48;96991.97;10369304;28;20225;-66
2023/05/07 15:01:08;;;;;;;7.13;5.75;;;;;;;12.73;81.71;96989.66;10369388;28;20193;-66
2023/05/07 15:06:09;;;;;;;5.80;5.10;;;;;;;12.34;83.93;97006.81;10369280;28;20246;-66
2023/05/07 15:11:09;;;;;;;8.07;5.50;;;;;;;11.91;87.57;97027.00;10369493;28;20197;-66
2023/05/07 15:16:10;;;;;;;7.45;5.63;;;;;;;11.74;85.49;97010.34;10368940;28;20276;-66
2023/05/07 15:21:10;;;;;;;8.35;5.60;;;;;;;11.43;88.14;97030.00;10369309;28;20204;-66
2023/05/07 15:26:11;;;;;;;5.63;4.97;;;;;;;11.19;86.84;97017.56;10367906;28;20271;-66
2023/05/07 15:31:11;;;;;;;5.97;4.82;;;;;;;11.44;86.42;97017.72;10374955;28;20193;-66
2023/05/07 15:36:12;;;;;;;5.78;4.95;;;;;;;11.26;87.01;97024.81;10376382;28;20256;-66
2023/05/07 15:41:12;;;;;;;5.93;5.10;;;;;;;11.24;90.03;97059.06;10376009;28;20280;-66
2023/05/07 15:46:17;;;;;;;6.97;4.53;;;;;;;12.01;88.91;97047.94;10376073;28;20209;-66
2023/05/07 15:51:17;;;;;;;6.28;4.85;;;;;;;12.23;85.52;97028.16;10375737;28;20286;-66
2023/05/07 15:56:18;;;;;;;3.90;3.50;;;;;;;12.03;85.47;97024.97;10375550;28;20229;-67
2023/05/07 16:01:18;;;;;;;4.13;3.72;;;;;;;11.69;87.96;97034.44;10375410;28;20189;-66
2023/05/07 16:06:18;;;;;;;5.45;3.85;;;;;;;11.55;87.88;97035.03;10375654;28;20252;-66
2023/05/07 16:11:19;;;;;;;4.70;3.50;;;;;;;11.38;89.77;97045.41;10386271;28;20193;-67
2023/05/07 16:16:20;;;;;;;4.65;4.18;;;;;;;11.19;89.56;97035.09;10378191;28;20283;-66
2023/05/07 16:21:20;;;;;;;4.40;4.00;;;;;;;11.25;91.50;97055.47;10375241;28;20201;-66
2023/05/07 16:26:20;;;;;;;4.65;4.25;;;;;;;10.96;90.07;97043.41;10374513;28;20231;-66
2023/05/07 16:31:21;;;;;;;6.13;4.70;;;;;;;10.79;91.55;97055.56;10374397;28;20259;-66
2023/05/07 16:36:21;;;;;;;4.95;4.53;;;;;;;10.48;95.16;97073.41;10373895;28;20257;-66
2023/05/07 16:41:21;;;;;;;7.68;5.20;;;;;;;10.58;96.86;97070.72;10373349;28;20255;-66
2023/05/07 16:46:22;;;;;;;5.82;4.70;;;;;;;10.52;94.57;97056.41;10373554;28;20213;-67
2023/05/07 16:51:23;;;;;;;6.20;5.60;;;;;;;10.56;93.78;97047.31;10373703;28;20201;-66
2023/05/07 16:56:23;;;;;;;4.88;4.47;;;;;;;10.58;94.99;97055.84;10373244;28;20233;-66
2023/05/07 17:01:24;;;;;;;6.88;4.55;;;;;;;10.40;93.13;97057.59;10373112;28;20198;-66
2023/05/07 17:06:24;;;;;;;6.07;4.97;;;;;;;10.47;93.82;97053.44;10373037;28;20294;-66
2023/05/07 17:11:29;;;;;;;6.50;5.67;;;;;;;10.08;95.30;97079.78;10372602;28;20181;-66
2023/05/07 17:16:30;;;;;;;9.63;5.83;;;;;;;10.07;94.88;97080.75;10409493;23;20243;-62
2023/05/07 17:21:30;;;;;;;6.37;4.87;;;;;;;9.85;95.27;97088.00;10410904;28;20705;-61
2023/05/07 17:26:33;;;;;;;6.17;5.50;;;;;;;9.73;96.80;97095.19;10412641;28;20568;-63
2023/05/07 17:31:33;;;;;;;6.80;5.83;;;;;;;9.42;100.00;97105.84;10412380;28;20198;-63
2023/05/07 17:36:34;;;;;;;7.50;6.10;;;;;;;9.15;100.00;97114.38;10411825;28;20224;-63
2023/05/07 17:41:37;;;;;;;6.87;5.97;;;;;;;9.09;100.00;97114.94;10412163;28;20224;-63
2023/05/07 17:46:37;;;;;;;7.63;6.77;;;;;;;8.92;100.00;97116.44;10411560;28;20209;-63
2023/05/07 17:51:38;;;;;;;7.60;6.53;;;;;;;8.76;100.00;97119.59;10411144;28;20199;-63
2023/05/07 17:56:39;;;;;;;7.77;6.97;;;;;;;8.82;100.00;97119.03;10411412;28;20228;-63
2023/05/07 18:01:40;;;;;;;7.57;6.57;;;;;;;8.72;100.00;97134.69;10411276;28;20231;-63
2023/05/07 18:06:41;;;;;;;9.33;6.80;;;;;;;8.68;100.00;97128.09;10411373;28;20213;-63
2023/05/07 18:11:41;;;;;;;8.20;7.00;;;;;;;8.49;100.00;97135.88;10410692;28;20188;-63
2023/05/07 18:16:42;;;;;;;8.13;6.60;;;;;;;8.52;100.00;97143.44;10410383;28;20264;-63
2023/05/07 18:21:42;;;;;;;8.43;7.13;;;;;;;8.40;100.00;97146.09;10410346;28;21079;-63
2023/05/07 18:26:42;;;;;;;11.87;6.80;;;;;;;8.35;100.00;97142.25;10410151;28;20730;-63
2023/05/07 18:31:43;;;;;;;9.20;7.60;;;;;;;8.11;100.00;97146.00;10410399;28;20188;-62
2023/05/07 18:36:43;;;;;;;7.80;7.00;;;;;;;7.95;100.00;97140.44;10409545;28;20261;-63
2023/05/07 18:41:44;;;;;;;9.20;7.57;;;;;;;7.84;100.00;97144.75;10409867;28;20236;-63
2023/05/07 18:46:46;;;;;;;10.80;8.67;;;;;;;7.66;100.00;97147.13;10394012;28;20213;-62
2023/05/07 18:51:47;;;;;;;13.17;9.17;;;;;;;7.66;100.00;97149.72;10408855;28;20204;-63
2023/05/07 18:56:48;;;;;;;13.27;9.23;;;;;;;7.30;100.00;97156.19;10409290;28;20217;-62
2023/05/07 19:01:48;;;;;;;12.80;7.90;;;;;;;7.22;100.00;97166.41;10408905;28;20275;-63
2023/05/07 19:06:48;;;;;;;15.60;9.67;;;;;;;6.97;100.00;97168.38;10416648;28;20201;-62
2023/05/07 19:11:49;;;;;;;10.80;8.90;;;;;;;6.87;100.00;97164.84;10416767;28;20282;-62
2023/05/07 19:16:49;;;;;;;11.60;9.23;;;;;;;6.42;100.00;97173.56;10416881;28;20331;-62
2023/05/07 19:21:50;;;;;;;13.07;9.27;;;;;;;6.41;100.00;97172.72;10386630;28;20620;-62
2023/05/07 19:26:50;;;;;;;12.73;9.97;;;;;;;6.04;100.00;97191.16;10375554;28;20659;-62
2023/05/07 19:31:50;;;;;;;13.60;10.13;;;;;;;6.09;100.00;97192.59;10392099;28;20197;-61
2023/05/07 19:36:51;;;;;;;17.30;12.23;;;;;;;6.05;100.00;97189.41;10394685;28;20217;-63
2023/05/07 19:41:51;;;;;;;13.47;9.70;;;;;;;5.92;100.00;97189.44;10394941;28;20197;-63
2023/05/07 19:46:51;;;;;;;14.10;9.10;;;;;;;6.07;100.00;97193.53;10394052;28;20259;-63
2023/05/07 19:51:52;;;;;;;12.63;10.53;;;;;;;6.04;100.00;97206.75;10394554;28;20192;-63
2023/05/07 19:56:52;;;;;;;14.77;11.30;;;;;;;6.14;100.00;97213.84;10393650;28;20225;-61
2023/05/07 20:01:52;;;;;;;11.27;7.17;;;;;;;6.07;100.00;97221.31;10392519;28;20220;-64
2023/05/07 20:06:53;;;;;;;12.30;9.23;;;;;;;6.12;100.00;97211.38;10393397;28;20703;-62
2023/05/07 20:11:53;;;;;;;10.87;9.33;;;;;;;6.15;100.00;97225.94;10393437;28;20719;-62
2023/05/07 20:16:53;;;;;;;11.13;9.90;;;;;;;6.17;100.00;97224.88;10391223;28;20236;-63
2023/05/07 20:21:54;;;;;;;13.33;9.90;;;;;;;6.20;100.00;97231.59;10392664;28;20567;-63
2023/05/07 20:26:54;;;;;;;14.23;10.43;;;;;;;6.18;100.00;97229.13;10392808;28;20232;-64
2023/05/07 20:31:54;;;;;;;29.47;16.87;;;;;;;6.24;100.00;97235.63;10390260;28;20568;-62
2023/05/07 20:36:55;;;;;;;13.23;11.47;;;;;;;6.25;100.00;97235.53;10391503;28;20822;-61
2023/05/07 20:41:58;;;;;;;14.10;12.37;;;;;;;6.19;100.00;97243.78;10403068;28;20663;-63
2023/05/07 20:46:58;;;;;;;10.33;8.73;;;;;;;6.20;100.00;97240.25;10413685;28;20216;-63
2023/05/07 20:51:59;;;;;;;10.83;9.73;;;;;;;6.21;100.00;97241.91;10413189;28;20188;-63
2023/05/07 20:56:59;;;;;;;10.23;8.90;;;;;;;6.22;100.00;97253.16;10413053;28;20235;-64
2023/05/07 21:02:01;;;;;;;12.23;8.50;;;;;;;6.36;100.00;97239.91;10412608;28;20184;-63
2023/05/07 21:07:01;;;;;;;15.57;9.23;;;;;;;6.33;100.00;97254.94;10412959;28;20220;-62
2023/05/07 21:12:01;;;;;;;12.30;9.77;;;;;;;6.36;100.00;97254.69;10413667;28;20191;-63
2023/05/07 21:17:05;;;;;;;9.50;8.50;;;;;;;6.43;100.00;97248.06;10412812;28;20289;-62
2023/05/07 21:22:05;;;;;;;13.27;9.47;;;;;;;6.39;100.00;97255.28;10413081;28;20188;-63
2023/05/07 21:27:05;;;;;;;13.13;10.47;;;;;;;6.52;100.00;97251.75;10412970;28;20231;-62
2023/05/07 21:32:06;;;;;;;9.90;8.90;;;;;;;6.41;100.00;97257.78;10412693;28;20196;-63
2023/05/07 21:37:06;;;;;;;12.00;8.30;;;;;;;6.42;100.00;97260.25;10412818;28;20294;-63
2023/05/07 21:42:06;;;;;;;8.70;7.80;;;;;;;6.42;100.00;97260.25;10412141;28;20193;-63
2023/05/07 21:47:07;;;;;;;10.87;9.03;;;;;;;6.42;100.00;97273.28;10412408;28;20726;-63
2023/05/07 21:52:14;;;;;;;11.47;8.73;;;;;;;6.56;100.00;97266.19;10412025;28;20571;-63
2023/05/07 21:57:15;;;;;;;10.07;8.47;;;;;;;6.53;100.00;97277.66;10411806;28;20232;-62
2023/05/07 22:02:15;;;;;;;9.30;8.30;;;;;;;6.45;100.00;97277.44;10411992;28;20220;-63
2023/05/07 22:07:15;;;;;;;13.20;9.73;;;;;;;6.36;100.00;97273.75;10411240;28;20208;-62
2023/05/07 22:12:16;;;;;;;10.73;9.63;;;;;;;6.59;100.00;97276.38;10411767;28;20269;-62
2023/05/07 22:17:16;;;;;;;9.87;8.13;;;;;;;6.53;100.00;97261.22;10409757;28;20232;-62
2023/05/07 22:22:17;;;;;;;11.03;8.60;;;;;;;6.46;100.00;97262.63;10411392;28;20269;-61
2023/05/07 22:27:18;;;;;;;10.90;8.93;;;;;;;6.35;100.00;97260.84;10411237;28;20299;-63
2023/05/07 22:32:18;;;;;;;13.37;9.17;;;;;;;6.06;100.00;97262.09;10410874;28;20280;-62
2023/05/07 22:37:18;;;;;;;10.03;8.93;;;;;;;5.87;100.00;97266.97;10411148;28;20224;-62
2023/05/07 22:42:19;;;;;;;10.47;8.53;;;;;;;5.64;100.00;97269.50;10419219;28;20222;-61
2023/05/07 22:47:19;;;;;;;10.13;8.43;;;;;;;5.49;100.00;97276.63;10419347;28;20243;-61
2023/05/07 22:52:20;;;;;;;12.13;9.23;;;;;;;5.29;100.00;97282.44;10418973;28;20197;-62
2023/05/07 22:57:20;;;;;;;13.67;9.10;;;;;;;4.96;100.00;97273.47;10418974;28;20311;-63
2023/05/07 23:02:21;;;;;;;11.77;9.40;;;;;;;4.77;100.00;97285.13;10419285;28;20196;-62
2023/05/07 23:07:21;;;;;;;10.80;8.87;;;;;;;4.83;100.00;97282.13;10418144;28;20211;-62
2023/05/07 23:12:22;;;;;;;9.73;8.73;;;;;;;4.68;100.00;97282.34;10418537;28;20204;-61